Terminal Aerodrome Forecast
Issued by NWS Twin Cities, MN

Home | Current Version | Previous Version | Text Only | Print | Product List | Glossary On
Versions: 1 2 3 4 5 6 7 8 9 10 11 12 13
000
FTUS43 KMPX 281700
TAFEAU
TAF
KEAU 281740Z 2818/2918 27004KT P6SM BKN015 OVC035
      TEMPO 2818/2819 SCT015 OVC035
     FM282000 01005KT P6SM SCT250
     FM290800 01004KT P6SM BKN100=

USA.gov is the U.S. government's official web portal to all federal, state and local government web resources and services.